Maples, Missouri
Current Conditions -  °F | °C
As of 6:38 PM on Saturday 20 Dec 2014 (Local Time) from KTBN Reporting Station
Overcast Overcast  
Wind Chill: 39°   Ceiling: 1500
Heat Index: 39°   Visibility: 10mi
Dew Point: 37°   Wind: 2mph
Humidity: 93%   Direction: 210°SSW
Pressure: 30.19"   Gusts: NA
Location:  37.5023°N, 91.4546°W
Report Text: KTBN 210038Z AUTO 21002KT 10SM OVC015 04/03 A3019 RMK AO2 $
Loading
Personal Weather Stations






























Interactive Weather Map New forecast layout! Learn more

10-Day Weather Forecast

Advertisements
Track Severe Weather on mobile